world map with SBMT marked

SBMT - Airport

This information may not be accurate or current and is not valid for navigation or flight planning. No warranty of fitness for any purpose is made or implied.

flag of São Pauloflag of Brazil

Donate via PayPal

Additional information is available on the NEW Great Circle Mapper

Location
City:  São Paulo, São Paulo, Brazil
Name:Campo de Marte
ICAO:SBMT

Details
Type:Airport (Aerodrome, Airfield)
Use:Public/Civil, Military
Latitude:23°30'33"S (-23.509118)
Longitude:46°38'16"W (-46.637752)
Datum:WGS 1984
Elevation:2368 ft (722 m)
Runways:1
Longest:5250 × 148 ft (1600 × 45 m)

Time
Timezone:UTC+31:08 (DST+34:08)
Local Time:

Weather
METAR:SBMT  041400Z 15010KT 100V180 9999 BKN015 OVC021 21/18 Q1019
TAF:SBMT  (expired)

Related Locations
Nearby:
Farthest:MMD: 12228 mi / 19679 km
Minamidaito [Minami Daito Airport], Minamidaito Jima, 47, JP

Find:

   beyond  
but within

Other Information
Maps:
Links:
Sources:

  


 


Great Circle Mapper   Great Circle Mapper
Great Circle Mapper FAQ   Great Circle Mapper FAQ
  Karl's Home Page
KLS²   KLS² Home
   GC on Facebook
Airlines of the World   Airlines of the World
Donate via PayPal


Copyright © 2004-2019, Karl L. Swartz. All rights reserved.
All trademarks mentioned herein belong to their respective owners.

Please see credits for attribution and copyright information.

Karl Swartz <karl@kls2.com>
  Powered by FreeBSD
Valid HTML 4.01!
Labeled with ICRA
hCard Microformat
Geo Microformat